Terminal Aerodrome Forecast
Issued by NWS Sioux Falls, SD

Home | Current Version | Previous Version | Graphics & Text | Print | Product List | Glossary On
Versions: 1 2 3 4 5 6 7 8 9 10 11 12 13 14 15 16 17 18 19 20 21 22 23 24 25 26 27 28 29 30 31 32 33 34 35 36 37 38 39 40 41 42 43 44
000
FTUS43 KFSD 300241 AAA
TAFSUX
TAF AMD
KSUX 300241Z 3003/3024 VRB04KT 6SM BR SCT007 BKN080
      TEMPO 3003/3005 BKN007
     FM300500 25004KT P6SM BKN080
     FM300700 27005KT 4SM BR FEW250
      TEMPO 3010/3014 1SM BR SCT003
     FM301400 33005KT 2SM BR SKC
     FM301500 32004KT P6SM SKC
     FM301900 VRB04KT P6SM BKN035=

USA.gov is the U.S. government's official web portal to all federal, state and local government web resources and services.